Time;durP1;ratioP1;P1;durP2;ratioP2;P2;SDS_P1;SDS_P2;PMS_P1;PMS_P2;Temp;Humidity;BMP_temperature;BMP_pressure;BME280_temperature;BME280_humidity;BME280_pressure;Samples;Min_cycle;Max_cycle;Signal;HPM_P1;HPM_P2
2023/11/14 00:00:59;;;;;;;14.50;4.00;;;;;;;;;;5032501;28;20446;-68
2023/11/14 00:03:28;;;;;;;19.13;3.83;;;;;;;;;;5033488;28;20478;-68
2023/11/14 00:05:53;;;;;;;21.35;4.13;;;;;;;;;;5033033;28;20025;-68
2023/11/14 00:08:19;;;;;;;17.45;3.38;;;;;;;;;;5032982;28;20535;-67
2023/11/14 00:10:44;;;;;;;28.02;4.22;;;;;;;;;;5033011;28;20029;-68
2023/11/14 00:13:09;;;;;;;21.48;3.92;;;;;;;;;;5032480;28;20112;-68
2023/11/14 00:15:35;;;;;;;18.00;3.00;;;;;;;;;;5032742;28;20033;-67
2023/11/14 00:18:01;;;;;;;17.45;3.35;;;;;;;;;;5032930;28;20029;-68
2023/11/14 00:20:26;;;;;;;14.93;2.60;;;;;;;;;;5033092;28;20056;-68
2023/11/14 00:22:51;;;;;;;22.50;3.42;;;;;;;;;;5032817;28;20049;-68
2023/11/14 00:25:17;;;;;;;21.27;3.33;;;;;;;;;;5032312;28;20018;-67
2023/11/14 00:27:42;;;;;;;23.60;3.45;;;;;;;;;;5032937;28;20541;-69
2023/11/14 00:30:08;;;;;;;27.58;3.97;;;;;;;;;;5032713;28;20025;-68
2023/11/14 00:32:33;;;;;;;33.22;4.05;;;;;;;;;;5032159;28;20029;-66
2023/11/14 00:34:58;;;;;;;24.30;4.05;;;;;;;;;;5032630;28;20037;-66
2023/11/14 00:37:24;;;;;;;31.77;4.38;;;;;;;;;;5032974;28;20490;-66
2023/11/14 00:39:49;;;;;;;25.48;4.15;;;;;;;;;;5032754;28;20029;-65
2023/11/14 00:42:14;;;;;;;25.50;4.70;;;;;;;;;;5034155;28;20052;-65
2023/11/14 00:44:40;;;;;;;34.97;4.65;;;;;;;;;;5035863;28;20025;-66
2023/11/14 00:47:05;;;;;;;34.25;4.88;;;;;;;;;;5028983;28;20025;-66
2023/11/14 00:49:30;;;;;;;22.90;4.55;;;;;;;;;;5036002;28;20497;-66
2023/11/14 00:51:55;;;;;;;32.20;4.47;;;;;;;;;;5035956;28;20029;-66
2023/11/14 00:54:21;;;;;;;24.52;4.13;;;;;;;;;;5036076;28;20024;-65
2023/11/14 00:56:46;;;;;;;33.60;4.07;;;;;;;;;;5035362;28;20095;-65
2023/11/14 00:59:12;;;;;;;21.00;3.63;;;;;;;;;;5035880;28;20064;-66
2023/11/14 01:01:38;;;;;;;27.05;6.00;;;;;;;;;;5035805;28;20048;-66
2023/11/14 01:04:03;;;;;;;32.40;6.47;;;;;;;;;;5035663;28;20026;-66
2023/11/14 01:06:29;;;;;;;29.50;5.72;;;;;;;;;;5035288;28;20075;-66
2023/11/14 01:08:55;;;;;;;36.00;5.18;;;;;;;;;;5035967;28;20040;-66
2023/11/14 01:11:23;;;;;;;31.65;4.55;;;;;;;;;;5035031;28;20026;-66
2023/11/14 01:13:48;;;;;;;32.03;4.53;;;;;;;;;;5035755;28;20403;-67
2023/11/14 01:16:17;;;;;;;32.15;4.85;;;;;;;;;;5035618;28;20025;-68
2023/11/14 01:18:42;;;;;;;31.25;4.97;;;;;;;;;;5034084;28;20493;-68
2023/11/14 01:21:08;;;;;;;27.58;4.65;;;;;;;;;;5035452;28;20033;-68
2023/11/14 01:23:33;;;;;;;36.65;5.60;;;;;;;;;;5017668;28;20026;-68
2023/11/14 01:25:59;;;;;;;28.42;5.57;;;;;;;;;;5035756;28;20048;-68
2023/11/14 01:28:24;;;;;;;37.25;5.20;;;;;;;;;;5034970;28;20030;-68
2023/11/14 01:30:50;;;;;;;30.83;4.35;;;;;;;;;;5035788;28;20124;-68
2023/11/14 01:33:15;;;;;;;30.73;3.92;;;;;;;;;;5036087;28;20029;-68
2023/11/14 01:35:40;;;;;;;26.17;4.72;;;;;;;;;;5036305;28;20018;-68
2023/11/14 01:38:06;;;;;;;37.22;5.18;;;;;;;;;;5035203;28;20471;-67
2023/11/14 01:40:31;;;;;;;40.42;6.07;;;;;;;;;;5034868;28;20113;-68
2023/11/14 01:43:02;;;;;;;21.92;4.22;;;;;;;;;;5035506;28;20022;-67
2023/11/14 01:45:28;;;;;;;25.45;4.65;;;;;;;;;;5033731;28;20026;-67
2023/11/14 01:47:55;;;;;;;36.60;5.70;;;;;;;;;;5034966;28;20021;-68
2023/11/14 01:50:20;;;;;;;23.42;4.32;;;;;;;;;;5034754;28;20069;-68
2023/11/14 01:52:45;;;;;;;31.80;6.30;;;;;;;;;;5033388;28;20052;-68
2023/11/14 01:55:11;;;;;;;25.88;4.15;;;;;;;;;;5033358;28;20068;-68
2023/11/14 01:57:37;;;;;;;16.10;4.10;;;;;;;;;;5034635;28;20013;-68
2023/11/14 02:00:02;;;;;;;23.13;4.72;;;;;;;;;;5034829;28;20026;-68
2023/11/14 02:02:55;;;;;;;24.80;4.53;;;;;;;;;;5034146;28;20022;-68
2023/11/14 02:05:21;;;;;;;33.88;5.10;;;;;;;;;;5034419;28;20049;-68
2023/11/14 02:07:46;;;;;;;24.30;3.97;;;;;;;;;;5033966;28;20079;-68
2023/11/14 02:10:11;;;;;;;29.83;4.57;;;;;;;;;;5034269;28;20025;-68
2023/11/14 02:12:37;;;;;;;25.38;4.28;;;;;;;;;;5033891;28;20108;-68
2023/11/14 02:15:05;;;;;;;26.88;4.22;;;;;;;;;;5033944;28;20057;-68
2023/11/14 02:17:31;;;;;;;32.45;4.05;;;;;;;;;;5033742;28;20056;-67
2023/11/14 02:19:56;;;;;;;25.90;4.72;;;;;;;;;;5033070;28;20399;-66
2023/11/14 02:22:22;;;;;;;30.42;5.00;;;;;;;;;;5033090;28;20033;-66
2023/11/14 02:24:51;;;;;;;29.02;4.97;;;;;;;;;;5032696;28;20014;-66
2023/11/14 02:27:16;;;;;;;23.30;4.55;;;;;;;;;;5034189;28;20474;-66
2023/11/14 02:29:41;;;;;;;34.17;5.03;;;;;;;;;;5033701;28;20044;-66
2023/11/14 02:32:07;;;;;;;22.45;3.80;;;;;;;;;;5032708;28;20432;-66
2023/11/14 02:34:32;;;;;;;25.67;4.50;;;;;;;;;;5033724;28;20021;-66
2023/11/14 02:36:57;;;;;;;19.10;3.72;;;;;;;;;;5034024;28;20402;-66
2023/11/14 02:39:23;;;;;;;34.70;5.82;;;;;;;;;;5032894;28;20060;-66
2023/11/14 02:41:48;;;;;;;20.10;3.45;;;;;;;;;;5034205;28;20022;-66
2023/11/14 02:44:14;;;;;;;21.00;5.30;;;;;;;;;;5033102;28;20112;-65
2023/11/14 02:46:39;;;;;;;21.65;3.63;;;;;;;;;;5034078;28;20036;-66
2023/11/14 02:49:21;;;;;;;23.27;6.03;;;;;;;;;;5033456;28;20021;-65
2023/11/14 02:51:46;;;;;;;24.70;4.45;;;;;;;;;;5032718;28;20047;-65
2023/11/14 02:54:12;;;;;;;24.05;3.53;;;;;;;;;;5033540;28;20449;-65
2023/11/14 02:56:37;;;;;;;27.15;3.75;;;;;;;;;;5032224;28;20025;-65
2023/11/14 02:59:04;;;;;;;31.63;3.95;;;;;;;;;;5033440;28;20395;-65
2023/11/14 03:01:29;;;;;;;18.15;3.88;;;;;;;;;;5033987;28;20025;-65
2023/11/14 03:03:54;;;;;;;15.40;3.05;;;;;;;;;;5033445;28;20108;-65
2023/11/14 03:06:19;;;;;;;15.68;3.45;;;;;;;;;;5032460;28;20029;-66
2023/11/14 03:08:45;;;;;;;20.70;3.85;;;;;;;;;;5033599;28;20052;-66
2023/11/14 03:11:10;;;;;;;16.73;4.00;;;;;;;;;;5033203;28;20034;-65
2023/11/14 03:13:36;;;;;;;21.38;4.07;;;;;;;;;;5033110;28;20018;-65
2023/11/14 03:16:02;;;;;;;16.25;3.38;;;;;;;;;;5032614;28;20502;-65
2023/11/14 03:18:27;;;;;;;25.67;4.18;;;;;;;;;;5033071;28;20394;-65
2023/11/14 03:20:53;;;;;;;15.65;3.85;;;;;;;;;;5032318;28;20045;-66
2023/11/14 03:23:18;;;;;;;38.97;4.80;;;;;;;;;;5032296;28;20086;-65
2023/11/14 03:25:43;;;;;;;18.45;3.70;;;;;;;;;;5033103;28;20021;-65
2023/11/14 03:28:08;;;;;;;32.65;4.43;;;;;;;;;;5031336;28;20025;-65
2023/11/14 03:30:34;;;;;;;11.25;3.03;;;;;;;;;;5033077;28;20414;-65
2023/11/14 03:32:59;;;;;;;21.98;4.43;;;;;;;;;;5031866;28;20029;-65
2023/11/14 03:35:24;;;;;;;25.70;3.25;;;;;;;;;;5031982;28;20053;-66
2023/11/14 03:37:50;;;;;;;23.38;4.10;;;;;;;;;;5032630;28;20029;-66
2023/11/14 03:40:15;;;;;;;25.38;4.63;;;;;;;;;;5033210;28;20025;-66
2023/11/14 03:42:40;;;;;;;31.35;4.80;;;;;;;;;;5032375;28;20053;-65
2023/11/14 03:45:06;;;;;;;27.80;3.90;;;;;;;;;;5032250;28;20021;-65
2023/11/14 03:47:31;;;;;;;42.10;5.65;;;;;;;;;;5032494;28;20486;-65
2023/11/14 03:49:57;;;;;;;35.40;5.20;;;;;;;;;;5033146;28;20032;-65
2023/11/14 03:52:22;;;;;;;20.73;3.20;;;;;;;;;;5032403;28;20029;-65
2023/11/14 03:54:47;;;;;;;26.52;5.32;;;;;;;;;;5031916;28;20022;-65
2023/11/14 03:57:13;;;;;;;35.08;5.32;;;;;;;;;;5032699;28;20470;-66
2023/11/14 03:59:38;;;;;;;25.55;4.38;;;;;;;;;;5033054;28;20025;-66
2023/11/14 04:02:03;;;;;;;25.25;4.20;;;;;;;;;;5031601;28;20037;-66
2023/11/14 04:04:29;;;;;;;29.67;4.72;;;;;;;;;;5032773;28;20364;-65
2023/11/14 04:06:55;;;;;;;19.88;3.40;;;;;;;;;;5032501;28;20025;-65
2023/11/14 04:09:20;;;;;;;23.80;4.05;;;;;;;;;;5032841;28;20029;-65
2023/11/14 04:11:47;;;;;;;24.98;3.65;;;;;;;;;;5032671;28;20076;-65
2023/11/14 04:14:12;;;;;;;19.20;3.22;;;;;;;;;;5031727;28;20032;-65
2023/11/14 04:16:37;;;;;;;19.73;3.72;;;;;;;;;;5032804;28;20021;-65
2023/11/14 04:19:03;;;;;;;23.77;4.72;;;;;;;;;;5036705;28;20029;-66
2023/11/14 04:21:28;;;;;;;16.17;2.85;;;;;;;;;;5036243;28;20053;-66
2023/11/14 04:23:53;;;;;;;25.60;4.75;;;;;;;;;;5036416;28;20092;-66
2023/11/14 04:26:19;;;;;;;19.05;3.97;;;;;;;;;;5036545;28;20029;-65
2023/11/14 04:28:44;;;;;;;29.27;3.75;;;;;;;;;;5036150;28;20528;-66
2023/11/14 04:31:10;;;;;;;20.73;4.47;;;;;;;;;;5036272;28;20029;-65
2023/11/14 04:33:35;;;;;;;24.52;3.40;;;;;;;;;;5034082;28;20021;-65
2023/11/14 04:36:00;;;;;;;27.38;3.72;;;;;;;;;;5036301;28;20036;-65
2023/11/14 04:38:26;;;;;;;23.98;3.63;;;;;;;;;;5035893;28;20036;-65
2023/11/14 04:40:51;;;;;;;30.85;4.22;;;;;;;;;;5036046;28;20029;-66
2023/11/14 04:43:17;;;;;;;27.15;4.07;;;;;;;;;;5034837;28;20021;-65
2023/11/14 04:45:42;;;;;;;28.65;5.07;;;;;;;;;;5035787;28;20040;-66
2023/11/14 04:48:07;;;;;;;18.85;3.47;;;;;;;;;;5035486;28;20032;-65
2023/11/14 04:50:32;;;;;;;25.02;4.22;;;;;;;;;;5036066;28;20143;-65
2023/11/14 04:52:58;;;;;;;25.27;4.22;;;;;;;;;;5035989;28;20068;-65
2023/11/14 04:55:23;;;;;;;14.40;4.97;;;;;;;;;;5035721;28;20463;-65
2023/11/14 04:57:48;;;;;;;28.52;3.58;;;;;;;;;;5035522;28;20025;-65
2023/11/14 05:00:14;;;;;;;19.13;3.13;;;;;;;;;;5035520;28;20497;-65
2023/11/14 05:02:39;;;;;;;27.52;4.80;;;;;;;;;;5035856;28;20022;-65
2023/11/14 05:05:05;;;;;;;45.40;6.57;;;;;;;;;;5035741;28;20052;-66
2023/11/14 05:07:30;;;;;;;33.30;4.72;;;;;;;;;;5036015;28;20455;-65
2023/11/14 05:09:56;;;;;;;27.15;4.15;;;;;;;;;;5035046;28;20029;-65
2023/11/14 05:12:21;;;;;;;16.40;4.10;;;;;;;;;;5035541;28;20033;-65
2023/11/14 05:14:46;;;;;;;18.02;3.55;;;;;;;;;;5035475;28;20068;-65
2023/11/14 05:17:12;;;;;;;34.88;5.43;;;;;;;;;;5035356;28;20029;-65
2023/11/14 05:19:37;;;;;;;39.28;6.43;;;;;;;;;;5036577;28;20029;-65
2023/11/14 05:22:02;;;;;;;18.38;3.67;;;;;;;;;;5035459;28;20045;-65
2023/11/14 05:24:27;;;;;;;29.35;4.70;;;;;;;;;;5036312;28;20030;-65
2023/11/14 05:26:54;;;;;;;26.58;5.28;;;;;;;;;;5035172;28;20106;-65
2023/11/14 05:29:19;;;;;;;23.00;3.53;;;;;;;;;;5035040;28;20025;-65
2023/11/14 05:31:44;;;;;;;14.05;3.10;;;;;;;;;;5035350;28;20028;-65
2023/11/14 05:34:10;;;;;;;18.05;2.97;;;;;;;;;;5034414;28;20079;-65
2023/11/14 05:36:36;;;;;;;30.48;5.55;;;;;;;;;;5035367;28;20064;-65
2023/11/14 05:39:01;;;;;;;29.10;5.03;;;;;;;;;;5034686;28;20024;-65
2023/11/14 05:41:27;;;;;;;29.38;4.47;;;;;;;;;;5035168;28;20430;-65
2023/11/14 05:43:52;;;;;;;28.45;5.68;;;;;;;;;;5035030;28;20021;-65
2023/11/14 05:46:17;;;;;;;25.70;5.60;;;;;;;;;;5034536;28;20025;-65
2023/11/14 05:48:43;;;;;;;33.50;6.05;;;;;;;;;;5035290;28;20036;-65
2023/11/14 05:51:08;;;;;;;37.40;7.10;;;;;;;;;;5035115;28;20054;-66
2023/11/14 05:53:33;;;;;;;38.13;4.78;;;;;;;;;;5034926;28;20471;-66
2023/11/14 05:55:59;;;;;;;35.53;5.07;;;;;;;;;;5034834;28;20056;-66
2023/11/14 05:58:24;;;;;;;29.75;4.95;;;;;;;;;;5034478;28;20109;-66
2023/11/14 06:00:49;;;;;;;24.40;4.78;;;;;;;;;;5034776;28;20029;-66
2023/11/14 06:03:19;;;;;;;29.48;6.13;;;;;;;;;;5034776;28;20029;-66
2023/11/14 06:05:45;;;;;;;21.15;4.93;;;;;;;;;;5034670;28;20049;-66
2023/11/14 06:08:10;;;;;;;32.47;5.03;;;;;;;;;;5034595;28;20053;-66
2023/11/14 06:10:35;;;;;;;27.20;3.97;;;;;;;;;;5034473;28;20033;-66
2023/11/14 06:13:01;;;;;;;28.83;4.93;;;;;;;;;;5034467;28;20029;-66
2023/11/14 06:15:26;;;;;;;30.73;5.10;;;;;;;;;;5034384;28;20026;-65
2023/11/14 06:17:53;;;;;;;28.73;5.05;;;;;;;;;;5034554;28;20506;-66
2023/11/14 06:20:18;;;;;;;46.22;5.18;;;;;;;;;;5034543;28;20057;-66
2023/11/14 06:22:43;;;;;;;29.63;5.18;;;;;;;;;;5034176;28;20473;-65
2023/11/14 06:25:09;;;;;;;28.35;5.05;;;;;;;;;;5034539;28;20100;-65
2023/11/14 06:27:34;;;;;;;26.42;4.22;;;;;;;;;;5034312;28;20025;-66
2023/11/14 06:30:00;;;;;;;22.30;3.33;;;;;;;;;;5034285;28;20064;-66
2023/11/14 06:32:25;;;;;;;17.88;3.80;;;;;;;;;;5034483;28;20021;-66
2023/11/14 06:34:51;;;;;;;32.13;5.75;;;;;;;;;;5034340;28;20045;-66
2023/11/14 06:37:18;;;;;;;26.50;4.57;;;;;;;;;;5033529;28;20021;-66
2023/11/14 06:39:43;;;;;;;23.55;5.10;;;;;;;;;;5033598;28;20119;-66
2023/11/14 06:42:09;;;;;;;26.92;5.53;;;;;;;;;;5034513;28;20022;-66
2023/11/14 06:44:35;;;;;;;30.25;4.88;;;;;;;;;;5034224;28;20425;-66
2023/11/14 06:47:00;;;;;;;35.00;6.38;;;;;;;;;;5032329;28;20459;-66
2023/11/14 06:49:25;;;;;;;40.33;6.15;;;;;;;;;;5033883;28;20497;-66
2023/11/14 06:51:51;;;;;;;23.83;4.32;;;;;;;;;;5034130;28;20072;-66
2023/11/14 06:54:16;;;;;;;22.27;3.42;;;;;;;;;;5033717;28;20025;-66
2023/11/14 06:56:42;;;;;;;31.02;5.15;;;;;;;;;;5033248;28;20498;-66
2023/11/14 06:59:07;;;;;;;19.98;4.10;;;;;;;;;;5034059;28;20116;-66
2023/11/14 07:01:33;;;;;;;27.05;4.85;;;;;;;;;;5033701;28;20045;-66
2023/11/14 07:03:58;;;;;;;22.83;3.47;;;;;;;;;;5033598;28;20056;-66
2023/11/14 07:06:24;;;;;;;22.20;4.22;;;;;;;;;;5033131;28;20064;-66
2023/11/14 07:08:52;;;;;;;19.77;3.88;;;;;;;;;;5033699;28;20030;-66
2023/11/14 07:11:18;;;;;;;17.65;3.88;;;;;;;;;;5019613;28;20022;-65
2023/11/14 07:13:43;;;;;;;26.42;3.90;;;;;;;;;;5031276;28;21243;-66
2023/11/14 07:16:09;;;;;;;18.75;3.25;;;;;;;;;;5033617;28;20554;-66
2023/11/14 07:18:35;;;;;;;17.35;3.97;;;;;;;;;;5033440;28;20033;-66
2023/11/14 07:21:01;;;;;;;24.42;4.03;;;;;;;;;;5033414;28;20078;-66
2023/11/14 07:23:26;;;;;;;21.65;3.42;;;;;;;;;;5033199;28;20022;-66
2023/11/14 07:25:52;;;;;;;15.18;2.85;;;;;;;;;;5032690;28;20040;-66
2023/11/14 07:28:18;;;;;;;26.10;3.95;;;;;;;;;;5033226;28;20059;-66
2023/11/14 07:30:45;;;;;;;21.60;4.05;;;;;;;;;;5032219;28;20025;-66
2023/11/14 07:33:10;;;;;;;24.73;3.45;;;;;;;;;;5032725;28;20537;-66
2023/11/14 07:35:37;;;;;;;14.75;3.33;;;;;;;;;;5033228;28;20029;-66
2023/11/14 07:38:04;;;;;;;27.85;4.57;;;;;;;;;;5033010;28;20589;-66
2023/11/14 07:40:30;;;;;;;15.27;2.90;;;;;;;;;;5033267;28;20490;-66
2023/11/14 07:42:56;;;;;;;16.67;2.92;;;;;;;;;;5033023;28;20033;-66
2023/11/14 07:45:21;;;;;;;19.40;3.30;;;;;;;;;;5031263;28;20025;-66
2023/11/14 07:47:46;;;;;;;22.35;3.88;;;;;;;;;;5028137;28;20022;-66
2023/11/14 07:50:12;;;;;;;14.43;3.67;;;;;;;;;;5013464;28;20037;-66
2023/11/14 07:52:37;;;;;;;21.50;3.50;;;;;;;;;;5016790;28;20391;-65
2023/11/14 07:55:03;;;;;;;14.70;2.53;;;;;;;;;;5034944;28;20394;-65
2023/11/14 07:57:29;;;;;;;21.27;3.63;;;;;;;;;;5036695;28;20033;-65
2023/11/14 07:59:55;;;;;;;23.83;3.55;;;;;;;;;;5036664;28;20546;-66
2023/11/14 08:02:20;;;;;;;23.00;2.85;;;;;;;;;;5035677;28;20053;-66
2023/11/14 08:04:46;;;;;;;12.68;3.70;;;;;;;;;;5037080;28;20033;-66
2023/11/14 08:07:11;;;;;;;10.10;2.97;;;;;;;;;;5036635;28;20060;-66
2023/11/14 08:09:36;;;;;;;23.30;3.35;;;;;;;;;;5035907;28;20018;-66
2023/11/14 08:12:02;;;;;;;22.35;2.70;;;;;;;;;;5036749;28;20113;-66
2023/11/14 08:14:27;;;;;;;11.93;3.08;;;;;;;;;;5036121;28;20057;-66
2023/11/14 08:16:53;;;;;;;20.77;3.95;;;;;;;;;;5036586;28;20375;-66
2023/11/14 08:19:18;;;;;;;13.23;3.80;;;;;;;;;;5036678;28;20029;-65
2023/11/14 08:21:43;;;;;;;15.88;3.17;;;;;;;;;;5035571;28;20091;-66
2023/11/14 08:24:09;;;;;;;16.98;2.50;;;;;;;;;;5035973;28;20079;-66
2023/11/14 08:26:35;;;;;;;12.40;3.38;;;;;;;;;;5036503;28;20052;-66
2023/11/14 08:29:00;;;;;;;13.40;3.22;;;;;;;;;;5036559;28;20035;-66
2023/11/14 08:31:25;;;;;;;11.00;2.85;;;;;;;;;;5036553;28;20075;-66
2023/11/14 08:33:51;;;;;;;12.35;3.03;;;;;;;;;;5036598;28;20032;-66
2023/11/14 08:36:16;;;;;;;9.98;2.30;;;;;;;;;;5035182;28;20057;-66
2023/11/14 08:38:41;;;;;;;21.35;3.20;;;;;;;;;;5036290;28;20112;-66
2023/11/14 08:41:07;;;;;;;19.10;2.90;;;;;;;;;;5035948;28;20025;-66
2023/11/14 08:43:34;;;;;;;15.63;3.13;;;;;;;;;;5036060;28;20433;-66
2023/11/14 08:46:00;;;;;;;18.00;3.60;;;;;;;;;;5036152;28;20024;-66
2023/11/14 08:48:25;;;;;;;25.27;3.83;;;;;;;;;;5034775;28;20104;-66
2023/11/14 08:50:50;;;;;;;17.80;3.25;;;;;;;;;;5035799;28;20051;-66
2023/11/14 08:53:17;;;;;;;20.45;4.75;;;;;;;;;;5036273;28;20475;-66
2023/11/14 08:55:42;;;;;;;24.52;4.05;;;;;;;;;;5035637;28;20029;-66
2023/11/14 08:58:07;;;;;;;13.15;2.53;;;;;;;;;;5036056;28;20022;-65
2023/11/14 09:00:32;;;;;;;20.92;5.03;;;;;;;;;;5036151;28;20470;-66
2023/11/14 09:03:01;;;;;;;29.70;4.20;;;;;;;;;;5034544;28;20056;-65
2023/11/14 09:05:27;;;;;;;25.33;4.45;;;;;;;;;;5035288;28;20037;-66
2023/11/14 09:07:55;;;;;;;22.92;4.28;;;;;;;;;;5035434;28;20071;-65
2023/11/14 09:10:20;;;;;;;19.80;3.80;;;;;;;;;;5036150;28;20254;-65
2023/11/14 09:12:46;;;;;;;30.90;4.50;;;;;;;;;;5035002;28;20029;-67
2023/11/14 09:15:13;;;;;;;20.17;3.40;;;;;;;;;;5036676;28;20490;-68
2023/11/14 09:17:39;;;;;;;14.20;3.35;;;;;;;;;;5035277;28;20025;-67
2023/11/14 09:20:05;;;;;;;17.17;3.42;;;;;;;;;;5033777;28;20025;-68
2023/11/14 09:22:30;;;;;;;15.93;3.83;;;;;;;;;;5034493;28;20030;-67
2023/11/14 09:24:56;;;;;;;17.98;2.95;;;;;;;;;;5033493;28;20537;-67
2023/11/14 09:27:24;;;;;;;15.63;3.03;;;;;;;;;;5035097;28;20021;-68
2023/11/14 09:29:50;;;;;;;13.55;3.40;;;;;;;;;;5035109;28;20022;-68
2023/11/14 09:32:19;;;;;;;14.65;2.22;;;;;;;;;;5032972;28;20103;-67
2023/11/14 09:34:46;;;;;;;12.50;2.75;;;;;;;;;;5034767;28;20048;-67
2023/11/14 09:37:11;;;;;;;15.80;3.13;;;;;;;;;;5034875;28;20033;-67
2023/11/14 09:39:36;;;;;;;13.32;3.35;;;;;;;;;;5034959;28;20022;-67
2023/11/14 09:42:02;;;;;;;14.15;3.50;;;;;;;;;;5034674;28;20028;-67
2023/11/14 09:44:28;;;;;;;22.70;3.50;;;;;;;;;;5033212;28;20021;-67
2023/11/14 09:46:55;;;;;;;14.20;3.88;;;;;;;;;;5034869;28;20096;-68
2023/11/14 09:49:20;;;;;;;16.38;3.30;;;;;;;;;;5034623;28;20491;-68
2023/11/14 09:51:47;;;;;;;25.75;4.85;;;;;;;;;;5033600;28;20104;-67
2023/11/14 09:54:15;;;;;;;14.50;2.38;;;;;;;;;;5034229;28;20407;-67
2023/11/14 09:56:44;;;;;;;9.43;3.10;;;;;;;;;;5032810;28;20025;-66
2023/11/14 09:59:10;;;;;;;17.15;3.05;;;;;;;;;;5034492;28;20416;-65
2023/11/14 10:01:36;;;;;;;12.52;2.42;;;;;;;;;;5032702;28;20021;-65
2023/11/14 10:04:02;;;;;;;10.38;4.18;;;;;;;;;;5034251;28;20099;-65
2023/11/14 10:06:27;;;;;;;21.48;3.53;;;;;;;;;;5034129;28;20025;-65
2023/11/14 10:08:55;;;;;;;19.20;3.00;;;;;;;;;;5033589;28;20049;-65
2023/11/14 10:11:21;;;;;;;20.67;4.18;;;;;;;;;;5032949;28;20056;-65
2023/11/14 10:13:47;;;;;;;16.40;3.85;;;;;;;;;;5032771;28;20506;-65
2023/11/14 10:16:19;;;;;;;13.60;3.10;;;;;;;;;;5033217;28;20033;-66
2023/11/14 10:18:51;;;;;;;15.13;2.80;;;;;;;;;;5031936;28;20483;-65
2023/11/14 10:21:23;;;;;;;14.32;3.58;;;;;;;;;;5033956;28;20029;-65
2023/11/14 10:23:49;;;;;;;20.70;3.83;;;;;;;;;;5034079;28;20025;-66
2023/11/14 10:26:15;;;;;;;28.13;4.13;;;;;;;;;;5033713;28;20017;-66
2023/11/14 10:28:54;;;;;;;15.38;3.50;;;;;;;;;;5032566;28;20033;-66
2023/11/14 10:31:36;;;;;;;23.15;6.43;;;;;;;;;;5033803;28;20103;-67
2023/11/14 10:34:02;;;;;;;18.48;4.97;;;;;;;;;;5014440;28;20068;-69
2023/11/14 10:36:28;;;;;;;17.25;3.63;;;;;;;;;;5012428;28;20139;-69
2023/11/14 10:39:03;;;;;;;23.40;4.50;;;;;;;;;;5023607;28;20033;-68
2023/11/14 10:41:29;;;;;;;12.13;3.95;;;;;;;;;;5034180;28;20083;-68
2023/11/14 10:43:54;;;;;;;17.92;3.90;;;;;;;;;;5031930;28;20021;-68
2023/11/14 10:46:20;;;;;;;14.75;2.38;;;;;;;;;;5034179;28;20581;-68
2023/11/14 10:48:45;;;;;;;8.10;2.08;;;;;;;;;;5033565;28;20044;-68
2023/11/14 10:51:14;;;;;;;15.65;4.05;;;;;;;;;;5033802;28;20029;-68
2023/11/14 10:53:42;;;;;;;8.00;3.28;;;;;;;;;;5032506;28;20029;-66
2023/11/14 10:56:07;;;;;;;6.70;1.98;;;;;;;;;;5032268;28;20040;-66
2023/11/14 10:58:34;;;;;;;10.38;3.88;;;;;;;;;;5033384;28;20029;-66
2023/11/14 11:01:00;;;;;;;6.47;2.72;;;;;;;;;;5032232;28;20029;-66
2023/11/14 11:03:26;;;;;;;4.45;2.25;;;;;;;;;;5033178;28;20026;-66
2023/11/14 11:05:51;;;;;;;5.75;1.52;;;;;;;;;;5033069;28;20030;-66
2023/11/14 11:08:17;;;;;;;4.45;2.13;;;;;;;;;;5033139;28;20068;-67
2023/11/14 11:10:42;;;;;;;6.63;1.63;;;;;;;;;;5033397;28;20040;-66
2023/11/14 11:13:20;;;;;;;8.52;2.13;;;;;;;;;;5031414;28;20064;-68
2023/11/14 11:15:48;;;;;;;7.53;1.95;;;;;;;;;;5032164;28;20037;-69
2023/11/14 11:18:14;;;;;;;7.20;3.58;;;;;;;;;;5032309;28;20035;-69
2023/11/14 11:20:39;;;;;;;9.95;2.13;;;;;;;;;;5032255;28;20037;-69
2023/11/14 11:23:13;;;;;;;4.20;1.33;;;;;;;;;;5033040;28;20474;-69
2023/11/14 11:25:41;;;;;;;7.43;2.13;;;;;;;;;;5032784;28;20381;-69
2023/11/14 11:28:19;;;;;;;5.10;2.00;;;;;;;;;;5031819;28;20071;-69
2023/11/14 11:31:04;;;;;;;4.93;2.25;;;;;;;;;;5033245;28;20022;-69
2023/11/14 11:33:33;;;;;;;10.48;3.08;;;;;;;;;;5032726;28;20021;-68
2023/11/14 11:36:34;;;;;;;7.75;2.15;;;;;;;;;;5033670;28;20096;-69
2023/11/14 11:39:04;;;;;;;4.28;2.35;;;;;;;;;;5033477;28;20104;-69
2023/11/14 11:41:32;;;;;;;6.55;1.42;;;;;;;;;;5033383;28;20025;-69
2023/11/14 11:44:09;;;;;;;3.85;1.80;;;;;;;;;;5033365;28;20021;-68
2023/11/14 11:46:44;;;;;;;5.15;1.58;;;;;;;;;;5032532;28;20022;-68
2023/11/14 11:49:12;;;;;;;5.97;2.28;;;;;;;;;;5032658;28;20026;-69
2023/11/14 11:51:43;;;;;;;7.80;1.70;;;;;;;;;;5033243;28;20082;-69
2023/11/14 11:54:27;;;;;;;3.67;1.92;;;;;;;;;;5031915;28;20030;-69
2023/11/14 11:57:10;;;;;;;3.05;2.08;;;;;;;;;;5032572;28;20030;-69
2023/11/14 11:59:42;;;;;;;4.93;1.65;;;;;;;;;;5033162;28;20104;-69
2023/11/14 12:02:10;;;;;;;5.15;1.35;;;;;;;;;;5033052;28;20402;-69
2023/11/14 12:04:36;;;;;;;5.40;1.92;;;;;;;;;;5031404;28;20052;-68
2023/11/14 12:07:01;;;;;;;5.07;2.17;;;;;;;;;;5031905;28;20076;-68
2023/11/14 12:09:28;;;;;;;4.43;1.42;;;;;;;;;;5033085;28;20376;-69
2023/11/14 12:11:53;;;;;;;3.03;1.25;;;;;;;;;;5032976;28;20032;-69
2023/11/14 12:14:19;;;;;;;4.20;1.23;;;;;;;;;;5032313;28;20021;-68
2023/11/14 12:16:47;;;;;;;4.78;1.75;;;;;;;;;;5031749;28;20030;-68
2023/11/14 12:19:13;;;;;;;25.00;10.70;;;;;;;;;;5033036;28;20025;-68
2023/11/14 12:21:38;;;;;;;9.00;3.83;;;;;;;;;;5032087;28;20475;-68
2023/11/14 12:24:04;;;;;;;16.65;8.38;;;;;;;;;;5031205;28;20021;-68
2023/11/14 12:26:30;;;;;;;7.13;4.18;;;;;;;;;;5031714;28;20029;-68
2023/11/14 12:28:56;;;;;;;7.20;3.15;;;;;;;;;;5032769;28;20041;-68
2023/11/14 12:31:28;;;;;;;9.98;4.43;;;;;;;;;;5031663;28;20032;-68
2023/11/14 12:33:56;;;;;;;7.15;3.08;;;;;;;;;;5032048;28;20026;-68
2023/11/14 12:36:29;;;;;;;3.75;2.00;;;;;;;;;;5033355;28;20029;-68
2023/11/14 12:38:55;;;;;;;7.10;2.08;;;;;;;;;;5035005;28;20059;-68
2023/11/14 12:41:26;;;;;;;3.85;1.80;;;;;;;;;;5035234;28;20025;-68
2023/11/14 12:44:00;;;;;;;5.82;2.22;;;;;;;;;;5036434;28;20017;-68
2023/11/14 12:46:30;;;;;;;7.32;3.00;;;;;;;;;;5036353;28;20021;-68
2023/11/14 12:49:15;;;;;;;5.18;2.20;;;;;;;;;;5035381;28;20079;-68
2023/11/14 12:51:43;;;;;;;7.88;2.63;;;;;;;;;;5036567;28;20028;-68
2023/11/14 12:54:08;;;;;;;6.90;2.95;;;;;;;;;;5035327;28;20021;-68
2023/11/14 12:56:38;;;;;;;6.78;2.50;;;;;;;;;;5035689;28;20095;-68
2023/11/14 12:59:05;;;;;;;8.88;2.83;;;;;;;;;;5034149;28;20025;-68
2023/11/14 13:01:34;;;;;;;5.28;2.20;;;;;;;;;;5036886;28;20451;-68
2023/11/14 13:04:00;;;;;;;7.82;2.42;;;;;;;;;;5036246;28;20017;-68
2023/11/14 13:06:27;;;;;;;5.07;2.17;;;;;;;;;;5036491;28;20044;-68
2023/11/14 13:08:53;;;;;;;4.00;2.30;;;;;;;;;;5035946;28;20028;-68
2023/11/14 13:11:19;;;;;;;8.65;2.50;;;;;;;;;;5035469;28;20029;-68
2023/11/14 13:13:44;;;;;;;5.75;2.00;;;;;;;;;;5035197;28;20045;-68
2023/11/14 13:16:09;;;;;;;4.30;1.70;;;;;;;;;;5034661;28;20026;-68
2023/11/14 13:18:36;;;;;;;5.78;2.00;;;;;;;;;;5035619;28;20486;-68
2023/11/14 13:21:02;;;;;;;4.35;2.28;;;;;;;;;;5034212;28;20061;-68
2023/11/14 13:23:27;;;;;;;4.60;2.60;;;;;;;;;;5034039;28;20041;-68
2023/11/14 13:25:53;;;;;;;4.28;2.03;;;;;;;;;;5034350;28;20025;-68
2023/11/14 13:28:18;;;;;;;2.42;1.70;;;;;;;;;;5035488;28;20029;-68
2023/11/14 13:30:43;;;;;;;3.00;1.73;;;;;;;;;;5035271;28;20507;-68
2023/11/14 13:33:11;;;;;;;4.07;1.60;;;;;;;;;;5035109;28;20030;-68
2023/11/14 13:35:36;;;;;;;2.55;1.52;;;;;;;;;;5034995;28;20470;-68
2023/11/14 13:38:02;;;;;;;12.13;6.03;;;;;;;;;;5034541;28;20029;-68
2023/11/14 13:40:27;;;;;;;34.20;10.32;;;;;;;;;;5034418;28;20032;-68
2023/11/14 13:42:53;;;;;;;12.93;5.68;;;;;;;;;;5035126;28;20032;-68
2023/11/14 13:45:18;;;;;;;4.63;2.83;;;;;;;;;;5048487;23;20073;-73
2023/11/14 13:47:43;;;;;;;5.75;2.83;;;;;;;;;;5034640;28;20402;-73
2023/11/14 13:50:10;;;;;;;8.38;3.30;;;;;;;;;;5034881;28;20045;-73
2023/11/14 13:52:35;;;;;;;5.95;3.10;;;;;;;;;;5034218;28;20029;-73
2023/11/14 13:55:01;;;;;;;5.65;1.70;;;;;;;;;;5035713;28;20026;-73
2023/11/14 13:57:26;;;;;;;5.50;3.00;;;;;;;;;;5035314;28;20421;-72
2023/11/14 13:59:53;;;;;;;7.00;2.47;;;;;;;;;;5035196;28;20102;-72
2023/11/14 14:02:18;;;;;;;8.20;1.98;;;;;;;;;;5000595;28;20029;-71
2023/11/14 14:04:44;;;;;;;5.32;1.77;;;;;;;;;;5016965;28;20394;-71
2023/11/14 14:07:10;;;;;;;7.45;2.55;;;;;;;;;;5034769;28;20025;-72
2023/11/14 14:09:35;;;;;;;5.38;2.05;;;;;;;;;;5034594;28;20030;-71
2023/11/14 14:12:01;;;;;;;3.13;1.75;;;;;;;;;;5034375;28;20025;-71
2023/11/14 14:14:26;;;;;;;5.00;1.73;;;;;;;;;;5017155;28;20036;-72
2023/11/14 14:16:52;;;;;;;4.28;2.55;;;;;;;;;;5034307;28;20479;-72
2023/11/14 14:19:17;;;;;;;7.65;2.28;;;;;;;;;;5016500;28;20048;-71
2023/11/14 14:21:44;;;;;;;3.70;1.90;;;;;;;;;;5033742;28;20048;-71
2023/11/14 14:24:09;;;;;;;2.70;1.92;;;;;;;;;;5016736;28;20391;-71
2023/11/14 14:26:34;;;;;;;6.07;2.20;;;;;;;;;;5034104;28;20029;-71
2023/11/14 14:29:00;;;;;;;3.92;2.00;;;;;;;;;;5033934;28;20100;-72